Itapira, Brazil
Current Conditions -  °F | °C
As of 5:00 PM on Monday 22 Dec 2014 (Local Time) from SBPC Reporting Station
Light Rain Light Rain  
Wind Chill: 68°   Ceiling: 1000
Heat Index: 68°   Visibility: 5mi
Dew Point: 68°   Wind: 2mph
Humidity: 100%   Direction: 340°NNW
Pressure: 30.06"   Gusts: NA
Location:  22.44°S, 46.82°W
Report Text: SBPC 221900Z 34002KT 8000 -RA BKN010 OVC070 20/20 Q1018 RETS
Loading
Personal Weather Stations






























Interactive Weather Map New forecast layout! Learn more

10-Day Weather Forecast

Advertisements
Track Severe Weather on mobile